sensor_id;sensor_type;location;lat;lon;timestamp;P1;P2;P0
13030;PMS7003;6582;54.644;9.760;2022-09-20T00:00:02;98.5;83.5;
13030;PMS7003;6582;54.644;9.760;2022-09-20T00:05:01;100.3;86.0;
13030;PMS7003;6582;54.644;9.760;2022-09-20T00:10:02;101.8;87.0;
13030;PMS7003;6582;54.644;9.760;2022-09-20T00:15:11;102.1;87.5;
13030;PMS7003;6582;54.644;9.760;2022-09-20T00:20:02;100.9;87.0;
13030;PMS7003;6582;54.644;9.760;2022-09-20T00:25:01;100.2;86.4;
13030;PMS7003;6582;54.644;9.760;2022-09-20T00:30:01;99.5;86.2;
13030;PMS7003;6582;54.644;9.760;2022-09-20T00:35:01;98.8;86.2;
13030;PMS7003;6582;54.644;9.760;2022-09-20T00:40:03;101.2;89.8;
13030;PMS7003;6582;54.644;9.760;2022-09-20T00:45:05;107.4;96.7;
13030;PMS7003;6582;54.644;9.760;2022-09-20T00:50:06;111.8;102.4;
13030;PMS7003;6582;54.644;9.760;2022-09-20T00:55:07;117.4;109.1;
13030;PMS7003;6582;54.644;9.760;2022-09-20T01:00:04;125.8;118.4;
13030;PMS7003;6582;54.644;9.760;2022-09-20T01:05:01;130.8;123.0;
13030;PMS7003;6582;54.644;9.760;2022-09-20T01:10:01;133.4;125.1;
13030;PMS7003;6582;54.644;9.760;2022-09-20T01:15:02;136.2;127.5;
13030;PMS7003;6582;54.644;9.760;2022-09-20T01:20:24;137.0;127.8;
13030;PMS7003;6582;54.644;9.760;2022-09-20T01:40:08;147.2;137.4;
13030;PMS7003;6582;54.644;9.760;2022-09-20T01:45:26;139.4;128.6;
13030;PMS7003;6582;54.644;9.760;2022-09-20T02:00:04;128.6;118.0;
13030;PMS7003;6582;54.644;9.760;2022-09-20T03:10:06;100.8;77.0;
13030;PMS7003;6582;54.644;9.760;2022-09-20T03:50:06;114.8;102.4;
13030;PMS7003;6582;54.644;9.760;2022-09-20T03:55:06;113.0;100.3;
13030;PMS7003;6582;54.644;9.760;2022-09-20T04:00:14;112.5;100.4;
13030;PMS7003;6582;54.644;9.760;2022-09-20T04:05:04;111.9;98.9;
13030;PMS7003;6582;54.644;9.760;2022-09-20T04:10:09;112.2;99.6;
13030;PMS7003;6582;54.644;9.760;2022-09-20T04:30:03;130.6;120.6;
13030;PMS7003;6582;54.644;9.760;2022-09-20T04:50:22;192.8;190.0;
13030;PMS7003;6582;54.644;9.760;2022-09-20T05:10:12;166.6;156.8;
13030;PMS7003;6582;54.644;9.760;2022-09-20T05:50:08;136.8;128.0;
13030;PMS7003;6582;54.644;9.760;2022-09-20T05:55:10;129.9;120.1;
13030;PMS7003;6582;54.644;9.760;2022-09-20T06:00:04;118.3;104.7;
13030;PMS7003;6582;54.644;9.760;2022-09-20T06:05:16;112.0;96.5;
13030;PMS7003;6582;54.644;9.760;2022-09-20T06:30:03;128.4;119.6;
13030;PMS7003;6582;54.644;9.760;2022-09-20T06:35:01;122.3;113.4;
13030;PMS7003;6582;54.644;9.760;2022-09-20T06:40:05;115.9;105.2;
13030;PMS7003;6582;54.644;9.760;2022-09-20T06:45:01;110.8;97.9;
13030;PMS7003;6582;54.644;9.760;2022-09-20T06:50:01;106.9;93.0;
13030;PMS7003;6582;54.644;9.760;2022-09-20T06:55:01;100.5;85.4;
13030;PMS7003;6582;54.644;9.760;2022-09-20T07:00:07;97.0;81.2;
13030;PMS7003;6582;54.644;9.760;2022-09-20T07:05:01;96.1;80.7;
13030;PMS7003;6582;54.644;9.760;2022-09-20T07:10:01;93.6;79.4;
13030;PMS7003;6582;54.644;9.760;2022-09-20T07:15:01;91.4;78.0;
13030;PMS7003;6582;54.644;9.760;2022-09-20T07:20:07;88.2;75.0;
13030;PMS7003;6582;54.644;9.760;2022-09-20T07:25:06;84.0;70.5;
13030;PMS7003;6582;54.644;9.760;2022-09-20T07:30:01;82.5;68.9;
13030;PMS7003;6582;54.644;9.760;2022-09-20T07:35:03;81.0;67.5;
13030;PMS7003;6582;54.644;9.760;2022-09-20T07:40:02;80.1;66.7;
13030;PMS7003;6582;54.644;9.760;2022-09-20T07:45:01;79.5;66.2;
13030;PMS7003;6582;54.644;9.760;2022-09-20T07:50:02;79.1;65.9;
13030;PMS7003;6582;54.644;9.760;2022-09-20T07:55:01;75.6;62.4;
13030;PMS7003;6582;54.644;9.760;2022-09-20T08:00:03;75.2;62.0;
13030;PMS7003;6582;54.644;9.760;2022-09-20T08:05:01;74.6;61.6;
13030;PMS7003;6582;54.644;9.760;2022-09-20T08:10:02;74.2;61.4;
13030;PMS7003;6582;54.644;9.760;2022-09-20T08:15:02;73.7;61.1;
13030;PMS7003;6582;54.644;9.760;2022-09-20T08:20:02;72.9;60.6;
13030;PMS7003;6582;54.644;9.760;2022-09-20T08:25:01;73.1;60.7;
13030;PMS7003;6582;54.644;9.760;2022-09-20T08:30:01;73.1;60.8;
13030;PMS7003;6582;54.644;9.760;2022-09-20T08:35:02;72.8;60.4;
13030;PMS7003;6582;54.644;9.760;2022-09-20T08:40:02;72.6;60.2;
13030;PMS7003;6582;54.644;9.760;2022-09-20T08:45:04;73.7;61.0;
13030;PMS7003;6582;54.644;9.760;2022-09-20T08:50:12;72.9;60.4;
13030;PMS7003;6582;54.644;9.760;2022-09-20T08:55:12;72.3;60.0;
13030;PMS7003;6582;54.644;9.760;2022-09-20T09:00:03;69.6;58.1;
13030;PMS7003;6582;54.644;9.760;2022-09-20T09:05:02;67.3;56.3;
13030;PMS7003;6582;54.644;9.760;2022-09-20T09:10:03;65.1;54.6;
13030;PMS7003;6582;54.644;9.760;2022-09-20T09:15:03;64.2;53.8;
13030;PMS7003;6582;54.644;9.760;2022-09-20T09:40:07;70.8;58.8;
13030;PMS7003;6582;54.644;9.760;2022-09-20T09:45:11;68.8;57.3;
13030;PMS7003;6582;54.644;9.760;2022-09-20T09:50:20;69.6;57.7;
13030;PMS7003;6582;54.644;9.760;2022-09-20T09:55:07;69.1;57.2;
13030;PMS7003;6582;54.644;9.760;2022-09-20T10:00:23;68.6;56.8;
13030;PMS7003;6582;54.644;9.760;2022-09-20T10:05:04;68.8;56.7;
13030;PMS7003;6582;54.644;9.760;2022-09-20T10:10:11;72.0;60.2;
13030;PMS7003;6582;54.644;9.760;2022-09-20T10:30:10;66.4;55.4;
13030;PMS7003;6582;54.644;9.760;2022-09-20T10:35:08;70.3;59.1;
13030;PMS7003;6582;54.644;9.760;2022-09-20T10:40:05;71.9;60.7;
13030;PMS7003;6582;54.644;9.760;2022-09-20T10:45:08;69.4;58.4;
13030;PMS7003;6582;54.644;9.760;2022-09-20T10:50:06;68.0;57.1;
13030;PMS7003;6582;54.644;9.760;2022-09-20T11:30:03;60.8;50.8;
13030;PMS7003;6582;54.644;9.760;2022-09-20T11:35:17;61.6;51.3;
13030;PMS7003;6582;54.644;9.760;2022-09-20T11:40:07;72.1;61.6;
13030;PMS7003;6582;54.644;9.760;2022-09-20T11:45:01;70.0;59.4;
13030;PMS7003;6582;54.644;9.760;2022-09-20T11:50:06;68.8;58.1;
13030;PMS7003;6582;54.644;9.760;2022-09-20T12:10:04;64.6;53.2;
13030;PMS7003;6582;54.644;9.760;2022-09-20T12:15:04;64.7;53.8;
13030;PMS7003;6582;54.644;9.760;2022-09-20T12:20:35;64.5;53.5;
13030;PMS7003;6582;54.644;9.760;2022-09-20T12:40:02;62.0;52.0;
13030;PMS7003;6582;54.644;9.760;2022-09-20T12:45:03;61.9;52.0;
13030;PMS7003;6582;54.644;9.760;2022-09-20T13:10:04;66.0;54.0;
13030;PMS7003;6582;54.644;9.760;2022-09-20T13:15:02;64.2;52.3;
13030;PMS7003;6582;54.644;9.760;2022-09-20T13:20:04;63.9;52.3;
13030;PMS7003;6582;54.644;9.760;2022-09-20T13:25:03;62.9;51.7;
13030;PMS7003;6582;54.644;9.760;2022-09-20T13:30:26;63.6;52.1;
13030;PMS7003;6582;54.644;9.760;2022-09-20T14:10:02;60.4;49.4;
13030;PMS7003;6582;54.644;9.760;2022-09-20T14:15:04;59.8;49.7;
13030;PMS7003;6582;54.644;9.760;2022-09-20T14:20:02;68.6;58.1;
13030;PMS7003;6582;54.644;9.760;2022-09-20T14:25:16;66.8;56.3;
13030;PMS7003;6582;54.644;9.760;2022-09-20T14:30:02;66.1;55.5;
13030;PMS7003;6582;54.644;9.760;2022-09-20T14:35:12;66.3;55.8;
13030;PMS7003;6582;54.644;9.760;2022-09-20T14:40:04;67.4;56.6;
13030;PMS7003;6582;54.644;9.760;2022-09-20T14:45:03;64.2;53.2;
13030;PMS7003;6582;54.644;9.760;2022-09-20T14:50:03;66.8;55.6;
13030;PMS7003;6582;54.644;9.760;2022-09-20T15:10:01;66.2;54.2;
13030;PMS7003;6582;54.644;9.760;2022-09-20T15:15:01;67.1;55.1;
13030;PMS7003;6582;54.644;9.760;2022-09-20T15:20:02;66.2;54.7;
13030;PMS7003;6582;54.644;9.760;2022-09-20T15:30:01;66.9;55.6;
13030;PMS7003;6582;54.644;9.760;2022-09-20T15:35:01;66.5;55.3;
13030;PMS7003;6582;54.644;9.760;2022-09-20T15:40:02;65.4;54.5;
13030;PMS7003;6582;54.644;9.760;2022-09-20T15:45:01;66.4;55.2;
13030;PMS7003;6582;54.644;9.760;2022-09-20T15:50:03;66.6;55.2;
13030;PMS7003;6582;54.644;9.760;2022-09-20T15:55:01;65.0;53.9;
13030;PMS7003;6582;54.644;9.760;2022-09-20T16:00:02;63.4;52.9;
13030;PMS7003;6582;54.644;9.760;2022-09-20T16:05:01;61.8;51.8;
13030;PMS7003;6582;54.644;9.760;2022-09-20T16:10:01;59.0;49.7;
13030;PMS7003;6582;54.644;9.760;2022-09-20T16:15:01;57.2;48.4;
13030;PMS7003;6582;54.644;9.760;2022-09-20T16:20:07;56.2;47.6;
13030;PMS7003;6582;54.644;9.760;2022-09-20T16:25:06;56.5;47.8;
13030;PMS7003;6582;54.644;9.760;2022-09-20T16:30:02;57.2;48.4;
13030;PMS7003;6582;54.644;9.760;2022-09-20T16:35:06;57.7;48.8;
13030;PMS7003;6582;54.644;9.760;2022-09-20T16:40:02;57.1;48.4;
13030;PMS7003;6582;54.644;9.760;2022-09-20T16:45:01;57.3;48.6;
13030;PMS7003;6582;54.644;9.760;2022-09-20T16:50:02;56.8;48.2;
13030;PMS7003;6582;54.644;9.760;2022-09-20T16:55:01;56.6;48.2;
13030;PMS7003;6582;54.644;9.760;2022-09-20T17:00:06;61.8;52.2;
13030;PMS7003;6582;54.644;9.760;2022-09-20T17:05:01;62.5;52.6;
13030;PMS7003;6582;54.644;9.760;2022-09-20T17:10:02;62.0;52.4;
13030;PMS7003;6582;54.644;9.760;2022-09-20T17:15:01;63.1;53.3;
13030;PMS7003;6582;54.644;9.760;2022-09-20T17:20:02;63.7;53.8;
13030;PMS7003;6582;54.644;9.760;2022-09-20T17:25:01;60.9;51.6;
13030;PMS7003;6582;54.644;9.760;2022-09-20T17:30:01;62.7;53.0;
13030;PMS7003;6582;54.644;9.760;2022-09-20T17:35:01;65.4;55.0;
13030;PMS7003;6582;54.644;9.760;2022-09-20T17:40:02;67.6;56.6;
13030;PMS7003;6582;54.644;9.760;2022-09-20T17:45:01;68.2;57.0;
13030;PMS7003;6582;54.644;9.760;2022-09-20T17:50:07;67.4;56.4;
13030;PMS7003;6582;54.644;9.760;2022-09-20T17:55:06;67.3;56.4;
13030;PMS7003;6582;54.644;9.760;2022-09-20T18:00:07;66.8;55.9;
13030;PMS7003;6582;54.644;9.760;2022-09-20T18:05:01;65.5;54.9;
13030;PMS7003;6582;54.644;9.760;2022-09-20T18:10:02;66.2;55.3;
13030;PMS7003;6582;54.644;9.760;2022-09-20T18:15:02;66.4;55.6;
13030;PMS7003;6582;54.644;9.760;2022-09-20T18:20:07;67.0;56.0;
13030;PMS7003;6582;54.644;9.760;2022-09-20T18:30:07;67.1;56.0;
13030;PMS7003;6582;54.644;9.760;2022-09-20T18:35:07;67.3;56.4;
13030;PMS7003;6582;54.644;9.760;2022-09-20T18:45:02;67.3;56.3;
13030;PMS7003;6582;54.644;9.760;2022-09-20T18:50:06;68.1;56.6;
13030;PMS7003;6582;54.644;9.760;2022-09-20T18:55:02;74.2;63.4;
13030;PMS7003;6582;54.644;9.760;2022-09-20T19:00:10;76.2;64.8;
13030;PMS7003;6582;54.644;9.760;2022-09-20T19:05:05;79.2;67.0;
13030;PMS7003;6582;54.644;9.760;2022-09-20T19:10:05;81.2;68.6;
13030;PMS7003;6582;54.644;9.760;2022-09-20T19:15:07;84.2;71.3;
13030;PMS7003;6582;54.644;9.760;2022-09-20T19:20:03;83.0;69.5;
13030;PMS7003;6582;54.644;9.760;2022-09-20T19:25:05;82.6;69.4;
13030;PMS7003;6582;54.644;9.760;2022-09-20T19:30:01;81.5;68.6;
13030;PMS7003;6582;54.644;9.760;2022-09-20T19:35:01;81.8;68.7;
13030;PMS7003;6582;54.644;9.760;2022-09-20T19:40:18;84.0;70.4;
13030;PMS7003;6582;54.644;9.760;2022-09-20T19:45:09;83.4;69.8;
13030;PMS7003;6582;54.644;9.760;2022-09-20T20:30:01;96.8;87.4;
13030;PMS7003;6582;54.644;9.760;2022-09-20T20:35:01;95.7;85.9;
13030;PMS7003;6582;54.644;9.760;2022-09-20T20:40:01;96.7;86.9;
13030;PMS7003;6582;54.644;9.760;2022-09-20T20:45:01;96.4;85.7;
13030;PMS7003;6582;54.644;9.760;2022-09-20T20:50:01;94.8;83.8;
13030;PMS7003;6582;54.644;9.760;2022-09-20T20:55:01;94.0;82.6;
13030;PMS7003;6582;54.644;9.760;2022-09-20T21:00:01;92.1;80.0;
13030;PMS7003;6582;54.644;9.760;2022-09-20T21:05:06;89.8;76.7;
13030;PMS7003;6582;54.644;9.760;2022-09-20T21:10:01;88.6;75.6;
13030;PMS7003;6582;54.644;9.760;2022-09-20T21:15:01;89.1;76.2;
13030;PMS7003;6582;54.644;9.760;2022-09-20T21:20:01;88.7;75.7;
13030;PMS7003;6582;54.644;9.760;2022-09-20T21:25:01;90.5;78.6;
13030;PMS7003;6582;54.644;9.760;2022-09-20T21:30:08;91.1;79.8;
13030;PMS7003;6582;54.644;9.760;2022-09-20T21:35:01;93.2;81.0;
13030;PMS7003;6582;54.644;9.760;2022-09-20T21:40:03;92.7;80.2;
13030;PMS7003;6582;54.644;9.760;2022-09-20T21:45:01;92.5;79.8;
13030;PMS7003;6582;54.644;9.760;2022-09-20T21:50:01;91.8;77.5;
13030;PMS7003;6582;54.644;9.760;2022-09-20T21:55:07;92.4;77.8;
13030;PMS7003;6582;54.644;9.760;2022-09-20T22:00:01;90.7;76.8;
13030;PMS7003;6582;54.644;9.760;2022-09-20T22:05:01;91.5;77.4;
13030;PMS7003;6582;54.644;9.760;2022-09-20T22:10:01;92.8;78.3;
13030;PMS7003;6582;54.644;9.760;2022-09-20T22:15:01;94.2;79.4;
13030;PMS7003;6582;54.644;9.760;2022-09-20T22:20:02;98.9;84.9;
13030;PMS7003;6582;54.644;9.760;2022-09-20T22:25:02;98.2;84.2;
13030;PMS7003;6582;54.644;9.760;2022-09-20T22:30:05;97.1;82.2;
13030;PMS7003;6582;54.644;9.760;2022-09-20T22:35:01;95.3;80.4;
13030;PMS7003;6582;54.644;9.760;2022-09-20T22:40:07;93.4;78.4;
13030;PMS7003;6582;54.644;9.760;2022-09-20T22:45:01;88.2;71.7;
13030;PMS7003;6582;54.644;9.760;2022-09-20T22:50:06;88.8;71.6;
13030;PMS7003;6582;54.644;9.760;2022-09-20T22:55:02;89.5;72.4;
13030;PMS7003;6582;54.644;9.760;2022-09-20T23:00:02;91.6;74.2;
13030;PMS7003;6582;54.644;9.760;2022-09-20T23:05:01;93.7;76.2;
13030;PMS7003;6582;54.644;9.760;2022-09-20T23:10:06;94.3;76.5;
13030;PMS7003;6582;54.644;9.760;2022-09-20T23:15:01;96.4;79.0;
13030;PMS7003;6582;54.644;9.760;2022-09-20T23:20:01;99.4;82.9;
13030;PMS7003;6582;54.644;9.760;2022-09-20T23:25:01;100.6;84.5;
13030;PMS7003;6582;54.644;9.760;2022-09-20T23:30:02;102.4;86.9;
13030;PMS7003;6582;54.644;9.760;2022-09-20T23:35:02;105.2;90.4;
13030;PMS7003;6582;54.644;9.760;2022-09-20T23:40:06;105.7;90.7;
13030;PMS7003;6582;54.644;9.760;2022-09-20T23:45:01;106.4;91.3;
13030;PMS7003;6582;54.644;9.760;2022-09-20T23:50:02;108.1;93.5;
13030;PMS7003;6582;54.644;9.760;2022-09-20T23:55:01;109.1;95.6;
